Time;durP1;ratioP1;P1;durP2;ratioP2;P2;SDS_P1;SDS_P2;PMS_P1;PMS_P2;Temp;Humidity;BMP_temperature;BMP_pressure;BME280_temperature;BME280_humidity;BME280_pressure;Samples;Min_cycle;Max_cycle;Signal;HPM_P1;HPM_P2
2022/04/30 00:02:08;;;;;;;8.73;5.72;;;;;;;10.73;52.57;102124.41;5012785;28;20080;-84
2022/04/30 00:04:40;;;;;;;7.75;5.57;;;;;;;10.68;52.28;102128.06;5013009;28;20039;-85
2022/04/30 00:07:06;;;;;;;6.93;5.63;;;;;;;10.59;52.33;102119.72;4993632;28;20042;-85
2022/04/30 00:09:32;;;;;;;8.57;5.40;;;;;;;10.55;53.26;102126.00;5004956;28;20112;-84
2022/04/30 00:11:58;;;;;;;7.10;6.32;;;;;;;10.51;53.46;102123.50;5013137;28;20044;-85
2022/04/30 00:14:25;;;;;;;9.82;6.15;;;;;;;10.44;53.08;102118.53;5011145;28;20018;-85
2022/04/30 00:16:50;;;;;;;9.68;7.13;;;;;;;10.26;53.28;102120.94;5013163;28;20111;-85
2022/04/30 00:19:15;;;;;;;8.10;7.10;;;;;;;9.91;53.54;102127.53;5012701;28;20109;-85
2022/04/30 00:21:41;;;;;;;10.27;6.50;;;;;;;9.74;54.61;102117.69;5012594;28;20458;-85
2022/04/30 00:24:07;;;;;;;9.57;7.13;;;;;;;9.57;54.62;102113.06;5013041;28;20108;-85
2022/04/30 00:26:32;;;;;;;11.70;6.53;;;;;;;9.77;54.18;102117.56;5012668;28;20394;-84
2022/04/30 00:28:58;;;;;;;9.70;5.90;;;;;;;9.91;54.00;102120.56;5012824;28;20459;-85
2022/04/30 00:31:25;;;;;;;7.60;5.75;;;;;;;10.01;53.58;102121.06;5011774;28;20030;-85
2022/04/30 00:33:51;;;;;;;7.95;6.38;;;;;;;9.95;53.38;102120.41;5012795;28;20026;-85
2022/04/30 00:36:16;;;;;;;7.97;6.38;;;;;;;9.88;53.33;102118.03;5010986;28;20372;-85
2022/04/30 00:38:42;;;;;;;9.23;5.78;;;;;;;9.91;52.80;102123.19;5011992;28;20036;-84
2022/04/30 00:41:08;;;;;;;8.00;5.45;;;;;;;9.96;52.94;102124.75;5011943;28;20029;-84
2022/04/30 00:43:47;;;;;;;6.88;5.82;;;;;;;10.07;53.18;102120.81;5012317;28;20029;-84
2022/04/30 00:46:17;;;;;;;6.55;5.55;;;;;;;10.08;53.16;102122.50;5011846;28;20064;-84
2022/04/30 00:48:43;;;;;;;8.25;5.97;;;;;;;9.93;53.59;102117.84;5011137;28;20101;-85
2022/04/30 00:51:16;;;;;;;8.40;6.22;;;;;;;10.12;53.46;102120.63;5011818;28;20029;-84
2022/04/30 00:53:46;;;;;;;8.55;5.40;;;;;;;10.03;53.89;102123.59;5012018;28;20469;-85
2022/04/30 00:56:13;;;;;;;8.00;6.15;;;;;;;9.93;53.85;102118.72;5012016;28;20091;-85
2022/04/30 00:58:41;;;;;;;7.40;5.28;;;;;;;9.97;53.80;102121.22;5012285;28;20040;-85
2022/04/30 01:01:06;;;;;;;10.32;6.05;;;;;;;9.89;53.95;102117.13;5011669;28;20026;-85
2022/04/30 01:03:32;;;;;;;8.43;6.32;;;;;;;9.91;54.11;102125.81;5010716;28;20511;-85
2022/04/30 01:05:59;;;;;;;8.68;6.30;;;;;;;9.93;53.61;102118.72;5012310;28;20057;-85
2022/04/30 01:08:29;;;;;;;7.75;5.90;;;;;;;9.88;53.94;102120.66;5011981;28;20118;-85
2022/04/30 01:11:00;;;;;;;7.93;5.93;;;;;;;9.88;54.15;102115.41;5012015;28;20057;-85
2022/04/30 01:13:28;;;;;;;8.68;6.15;;;;;;;9.77;53.92;102120.19;5011766;28;20427;-85
2022/04/30 01:15:58;;;;;;;6.82;5.80;;;;;;;9.68;53.94;102112.69;5011973;28;20041;-85
2022/04/30 01:18:25;;;;;;;9.10;6.45;;;;;;;9.42;54.19;102111.88;5011588;28;20038;-85
2022/04/30 01:20:53;;;;;;;9.68;6.88;;;;;;;9.42;54.46;102106.63;5010743;28;20030;-85
2022/04/30 01:23:20;;;;;;;9.00;6.85;;;;;;;9.41;54.39;102104.88;5011587;28;20064;-85
2022/04/30 01:25:47;;;;;;;7.97;6.38;;;;;;;9.46;54.04;102112.63;5011801;28;20029;-85
2022/04/30 01:28:14;;;;;;;11.20;7.60;;;;;;;9.42;54.92;102109.25;5012109;28;20029;-85
2022/04/30 01:30:39;;;;;;;9.10;7.47;;;;;;;9.33;54.73;102106.94;5011615;28;20030;-85
2022/04/30 01:38:32;;;;;;;9.90;7.47;;;;;;;9.42;54.91;102095.25;4992365;28;20125;-85
2022/04/30 01:40:58;;;;;;;10.15;7.95;;;;;;;9.41;54.91;102094.41;4992538;28;20058;-85
2022/04/30 01:43:25;;;;;;;10.25;7.80;;;;;;;9.38;55.02;102097.16;5011730;28;20034;-85
2022/04/30 01:45:51;;;;;;;11.25;8.57;;;;;;;9.34;55.52;102100.81;5011560;28;20033;-85
2022/04/30 01:48:16;;;;;;;10.98;8.68;;;;;;;9.38;55.15;102091.91;5011554;28;20042;-85
2022/04/30 01:50:42;;;;;;;12.85;8.43;;;;;;;9.42;54.88;102095.25;5013271;28;20030;-85
2022/04/30 01:53:08;;;;;;;10.60;8.25;;;;;;;9.43;55.25;102094.34;5015189;28;20173;-85
2022/04/30 01:55:34;;;;;;;11.88;8.77;;;;;;;9.36;55.06;102090.22;5015034;28;20034;-85
2022/04/30 01:57:59;;;;;;;11.20;8.80;;;;;;;9.36;55.02;102095.47;5015436;28;20491;-85
2022/04/30 02:00:26;;;;;;;9.65;7.82;;;;;;;9.32;55.32;102090.38;5014902;28;20473;-85
2022/04/30 02:02:54;;;;;;;12.43;8.75;;;;;;;9.29;55.44;102085.22;5014924;28;20030;-85
2022/04/30 02:05:20;;;;;;;10.57;7.85;;;;;;;9.27;55.35;102079.19;5014999;28;20025;-85
2022/04/30 02:07:50;;;;;;;9.90;7.35;;;;;;;9.27;55.51;102086.19;5015101;28;20029;-85
2022/04/30 02:10:18;;;;;;;12.90;7.75;;;;;;;9.23;55.60;102079.34;5015207;28;20042;-85
2022/04/30 02:12:44;;;;;;;11.07;7.90;;;;;;;9.25;55.52;102082.78;5014949;28;20490;-85
2022/04/30 02:15:14;;;;;;;11.57;8.35;;;;;;;9.25;55.27;102075.75;5014817;28;20207;-85
2022/04/30 02:17:41;;;;;;;10.98;7.72;;;;;;;9.15;56.03;102073.53;5014638;28;20396;-85
2022/04/30 02:20:25;;;;;;;10.57;8.02;;;;;;;9.09;55.34;102078.06;5014936;28;20076;-85
2022/04/30 02:22:54;;;;;;;9.18;7.40;;;;;;;9.07;55.32;102068.56;5014616;28;20495;-85
2022/04/30 02:25:21;;;;;;;12.50;8.73;;;;;;;9.03;55.78;102078.28;5015122;28;20088;-85
2022/04/30 02:27:48;;;;;;;12.73;8.65;;;;;;;9.05;55.91;102078.22;5014304;28;20030;-85
2022/04/30 02:30:17;;;;;;;13.60;9.32;;;;;;;9.06;57.20;102067.72;5014355;28;20084;-84
2022/04/30 02:32:46;;;;;;;12.13;9.88;;;;;;;9.14;55.99;102077.88;5013273;28;20052;-85
2022/04/30 02:35:24;;;;;;;14.68;9.00;;;;;;;9.13;56.42;102074.41;5014807;28;20105;-85
2022/04/30 02:37:52;;;;;;;13.32;9.32;;;;;;;8.93;56.30;102075.13;5012846;28;20026;-84
2022/04/30 02:40:19;;;;;;;20.17;11.10;;;;;;;8.90;56.25;102072.59;5014620;28;20273;-85
2022/04/30 02:42:46;;;;;;;12.82;9.15;;;;;;;8.95;56.44;102072.44;5014379;28;20470;-85
2022/04/30 02:45:13;;;;;;;16.38;10.18;;;;;;;8.99;56.57;102071.44;5014747;28;20057;-85
2022/04/30 02:47:40;;;;;;;12.10;9.10;;;;;;;9.02;56.49;102062.59;5014318;28;20030;-85
2022/04/30 02:50:11;;;;;;;11.65;8.65;;;;;;;9.11;55.79;102073.63;5014584;28;20526;-84
2022/04/30 02:52:37;;;;;;;12.75;9.00;;;;;;;9.03;56.17;102066.94;5011718;28;20403;-85
2022/04/30 02:55:06;;;;;;;10.40;8.05;;;;;;;9.12;56.99;102072.72;5012671;28;20071;-85
2022/04/30 02:57:39;;;;;;;12.82;9.30;;;;;;;9.18;56.43;102068.16;5014124;28;20380;-85
2022/04/30 03:00:07;;;;;;;15.27;9.32;;;;;;;9.10;56.66;102071.94;5013694;28;20167;-85
2022/04/30 03:02:32;;;;;;;14.60;9.93;;;;;;;8.96;56.32;102058.44;5013499;28;20030;-85
2022/04/30 03:04:58;;;;;;;14.57;9.57;;;;;;;8.97;56.88;102061.94;5012896;28;20491;-85
2022/04/30 03:07:24;;;;;;;11.32;8.45;;;;;;;8.97;56.83;102067.16;5014280;28;20028;-85
2022/04/30 03:09:50;;;;;;;10.98;8.40;;;;;;;8.91;56.90;102057.75;5014038;28;20034;-85
2022/04/30 03:12:17;;;;;;;15.32;9.00;;;;;;;8.95;57.10;102063.75;5013954;28;20041;-85
2022/04/30 03:14:43;;;;;;;13.68;9.88;;;;;;;8.99;56.90;102063.56;5013913;28;20475;-85
2022/04/30 03:22:38;;;;;;;13.55;9.73;;;;;;;8.60;58.49;102063.16;4994143;28;20049;-85
2022/04/30 03:25:04;;;;;;;12.68;8.60;;;;;;;8.60;58.42;102064.00;5009737;28;20449;-85
2022/04/30 03:27:29;;;;;;;10.57;7.78;;;;;;;8.60;57.98;102071.03;5013534;28;20452;-85
2022/04/30 03:29:55;;;;;;;14.10;8.50;;;;;;;8.59;57.62;102072.78;5013536;28;20109;-84
2022/04/30 03:32:21;;;;;;;12.45;8.82;;;;;;;8.91;56.67;102068.22;5013570;28;20033;-85
2022/04/30 03:34:47;;;;;;;12.25;8.43;;;;;;;8.88;56.18;102068.31;5012383;28;20379;-85
2022/04/30 03:37:13;;;;;;;11.38;8.50;;;;;;;8.88;56.18;102068.31;5013164;28;20040;-85
2022/04/30 03:39:39;;;;;;;11.32;8.57;;;;;;;8.83;56.57;102060.63;5013969;28;20022;-85
2022/04/30 03:42:05;;;;;;;10.70;8.70;;;;;;;8.80;56.65;102067.72;5012986;28;20100;-85
2022/04/30 03:44:30;;;;;;;12.77;8.88;;;;;;;8.72;55.86;102063.59;5013562;28;20030;-85
2022/04/30 03:46:55;;;;;;;12.63;8.70;;;;;;;8.69;55.82;102055.00;5013146;28;20034;-85
2022/04/30 03:49:21;;;;;;;16.60;8.88;;;;;;;8.55;56.25;102055.47;5013384;28;20026;-86
2022/04/30 03:51:46;;;;;;;10.93;8.20;;;;;;;8.57;56.40;102056.28;5012605;28;20534;-85
2022/04/30 03:54:11;;;;;;;14.98;8.90;;;;;;;8.56;56.00;102057.16;5013571;28;20033;-85
2022/04/30 03:56:37;;;;;;;12.40;8.88;;;;;;;8.57;56.58;102065.88;5013286;28;20423;-85
2022/04/30 03:59:03;;;;;;;11.43;8.18;;;;;;;8.57;56.07;102058.03;5013212;28;20030;-85
2022/04/30 04:01:28;;;;;;;13.93;8.73;;;;;;;8.56;56.70;102059.78;5012843;28;20400;-85
2022/04/30 04:03:54;;;;;;;11.35;8.52;;;;;;;8.51;56.33;102059.06;5013373;28;20033;-86
2022/04/30 04:06:19;;;;;;;12.95;8.73;;;;;;;8.53;56.34;102062.50;5013198;28;20033;-85
2022/04/30 04:08:50;;;;;;;13.60;9.25;;;;;;;8.47;56.74;102045.25;5013474;28;20061;-85
2022/04/30 04:11:16;;;;;;;11.97;9.23;;;;;;;8.43;56.52;102048.00;5011971;28;20408;-85
2022/04/30 04:19:10;;;;;;;13.57;9.70;;;;;;;8.23;56.50;102036.38;5024720;28;20088;-84
2022/04/30 04:21:35;;;;;;;15.05;9.00;;;;;;;8.07;56.91;102041.25;5014172;28;20076;-85
2022/04/30 04:26:45;;;;;;;14.57;10.27;;;;;;;7.63;57.94;102037.38;5012433;28;20037;-85
2022/04/30 04:29:10;;;;;;;13.85;9.43;;;;;;;7.86;58.55;102047.13;5012565;28;20029;-85
2022/04/30 04:31:36;;;;;;;15.32;10.38;;;;;;;7.92;58.38;102039.13;5012634;28;20033;-85
2022/04/30 04:34:02;;;;;;;14.30;9.75;;;;;;;8.07;58.66;102043.00;5012907;28;20030;-85
2022/04/30 04:36:27;;;;;;;14.00;9.48;;;;;;;8.16;57.92;102032.25;5012243;28;20044;-85
2022/04/30 04:38:52;;;;;;;14.23;9.35;;;;;;;8.23;57.96;102044.22;5012727;28;20076;-85
2022/04/30 04:41:18;;;;;;;12.65;8.73;;;;;;;8.27;57.51;102040.63;5010776;28;20073;-85
2022/04/30 04:43:43;;;;;;;14.63;9.65;;;;;;;8.24;56.86;102037.25;5012046;28;20061;-84
2022/04/30 04:46:09;;;;;;;13.82;9.55;;;;;;;8.29;57.34;102038.81;5012265;28;20065;-85
2022/04/30 04:48:36;;;;;;;12.80;8.38;;;;;;;8.31;57.49;102034.41;5012625;28;20095;-85
2022/04/30 04:51:01;;;;;;;14.75;9.15;;;;;;;8.30;56.75;102031.81;5012103;28;20439;-85
2022/04/30 04:53:27;;;;;;;14.00;9.55;;;;;;;8.33;57.21;102029.09;5012348;28;20036;-85
2022/04/30 04:55:52;;;;;;;14.60;9.88;;;;;;;8.34;58.15;102026.44;5012215;28;20025;-85
2022/04/30 04:58:17;;;;;;;15.63;10.35;;;;;;;8.49;58.32;102030.34;5012039;28;20030;-85
2022/04/30 05:00:43;;;;;;;15.52;10.15;;;;;;;8.53;57.90;102036.31;5011919;28;20045;-85
2022/04/30 05:03:08;;;;;;;16.70;11.15;;;;;;;8.64;57.89;102028.97;5012173;28;20049;-86
2022/04/30 05:05:35;;;;;;;12.88;10.38;;;;;;;8.70;57.83;102031.38;5012228;28;20022;-84
2022/04/30 05:08:00;;;;;;;21.33;13.63;;;;;;;8.74;57.43;102030.34;5012288;28;20018;-84
2022/04/30 05:10:25;;;;;;;18.58;12.30;;;;;;;8.74;57.95;102032.97;5012115;28;20113;-84
2022/04/30 05:12:51;;;;;;;16.35;10.93;;;;;;;8.77;58.20;102039.88;5011928;28;20026;-84
2022/04/30 05:15:16;;;;;;;16.88;10.88;;;;;;;8.87;57.75;102045.66;5010770;28;20030;-85
2022/04/30 05:17:42;;;;;;;16.25;10.88;;;;;;;8.89;57.60;102038.63;5010952;28;20471;-85
2022/04/30 05:20:08;;;;;;;14.60;10.00;;;;;;;8.92;57.67;102041.09;5012159;28;20085;-85
2022/04/30 05:22:33;;;;;;;16.98;10.50;;;;;;;8.95;58.29;102048.88;5012029;28;20044;-84
2022/04/30 05:24:59;;;;;;;16.52;10.95;;;;;;;9.04;57.69;102048.53;5014475;28;20112;-85
2022/04/30 05:27:24;;;;;;;16.90;10.68;;;;;;;9.00;57.95;102049.56;5014840;28;20104;-84
2022/04/30 05:29:50;;;;;;;17.17;10.85;;;;;;;9.18;57.57;102050.66;5014046;28;20030;-84
2022/04/30 05:32:15;;;;;;;16.23;11.00;;;;;;;9.18;57.50;102044.56;5027770;28;20033;-85
2022/04/30 05:34:41;;;;;;;16.80;10.77;;;;;;;9.30;57.54;102055.47;5010933;28;20588;-83
2022/04/30 05:37:06;;;;;;;13.38;9.95;;;;;;;9.33;57.20;102052.75;5011020;28;20029;-86
2022/04/30 05:39:32;;;;;;;14.70;10.65;;;;;;;9.47;57.45;102051.38;5010706;28;20400;-86
2022/04/30 05:41:57;;;;;;;15.10;10.57;;;;;;;9.52;56.96;102054.69;5011071;28;20511;-87
2022/04/30 05:44:23;;;;;;;14.98;10.60;;;;;;;9.58;56.62;102056.22;5009796;28;20065;-85
2022/04/30 05:46:48;;;;;;;16.35;11.77;;;;;;;9.52;56.55;102068.66;5010704;28;20712;-86
2022/04/30 05:49:13;;;;;;;16.60;10.10;;;;;;;9.56;56.69;102060.66;5010823;28;20112;-85
2022/04/30 05:51:39;;;;;;;14.48;11.27;;;;;;;9.57;56.51;102068.47;5010453;28;20033;-85
2022/04/30 05:54:04;;;;;;;18.73;10.48;;;;;;;9.65;56.00;102055.09;5011101;28;20103;-85
2022/04/30 05:56:30;;;;;;;18.35;11.18;;;;;;;9.72;56.05;102064.44;5010403;28;20034;-86
2022/04/30 05:58:55;;;;;;;14.50;10.88;;;;;;;9.70;55.43;102061.88;5009264;28;20045;-85
2022/04/30 06:01:21;;;;;;;12.77;9.90;;;;;;;9.71;55.46;102068.81;5010100;28;20025;-86
2022/04/30 06:03:46;;;;;;;16.10;11.13;;;;;;;9.76;55.74;102073.06;5010351;28;20236;-84
2022/04/30 06:06:11;;;;;;;16.23;10.35;;;;;;;9.82;55.94;102075.44;5010483;28;20098;-83
2022/04/30 06:08:37;;;;;;;16.52;12.05;;;;;;;9.74;55.27;102067.84;5010427;28;20292;-84
2022/04/30 06:11:03;;;;;;;13.90;10.38;;;;;;;9.82;56.02;102072.81;5009902;28;20038;-85
2022/04/30 06:13:28;;;;;;;14.93;10.82;;;;;;;9.81;56.01;102071.94;5009506;28;20088;-85
2022/04/30 06:15:54;;;;;;;15.60;10.98;;;;;;;9.85;55.69;102070.06;5009803;28;20041;-85
2022/04/30 06:18:20;;;;;;;16.30;11.70;;;;;;;9.99;56.13;102054.66;5010213;28;20045;-85
2022/04/30 06:20:45;;;;;;;14.30;9.63;;;;;;;10.11;55.58;102062.03;5013850;28;20026;-84
2022/04/30 06:23:15;;;;;;;17.13;11.23;;;;;;;10.33;55.56;102069.09;5015161;28;20054;-86
2022/04/30 06:25:41;;;;;;;14.38;10.30;;;;;;;10.43;55.79;102064.34;5015135;28;20438;-86
2022/04/30 06:28:06;;;;;;;19.27;12.38;;;;;;;10.66;55.58;102064.25;5013865;28;20022;-86
2022/04/30 06:30:32;;;;;;;16.92;12.27;;;;;;;10.88;55.22;102068.56;5013636;28;20501;-86
2022/04/30 06:32:57;;;;;;;15.93;11.18;;;;;;;11.13;54.26;102067.50;5013858;28;20084;-86
2022/04/30 06:35:23;;;;;;;16.75;12.50;;;;;;;11.51;53.56;102057.91;5014339;28;20144;-85
2022/04/30 06:37:48;;;;;;;16.77;12.63;;;;;;;12.61;51.62;102058.84;5014269;28;20053;-86
2022/04/30 06:40:13;;;;;;;19.77;12.95;;;;;;;13.96;48.79;102058.78;5013109;28;20030;-85
2022/04/30 06:42:44;;;;;;;18.80;11.55;;;;;;;15.11;45.32;102064.50;5013633;28;20060;-86
2022/04/30 06:45:10;;;;;;;16.73;11.30;;;;;;;16.41;42.40;102066.88;5014445;28;20029;-84
2022/04/30 06:47:36;;;;;;;14.18;10.57;;;;;;;17.46;40.19;102057.09;5013289;28;20549;-84
2022/04/30 06:50:02;;;;;;;14.20;9.35;;;;;;;18.54;38.58;102063.41;5013987;28;20112;-84
2022/04/30 06:52:28;;;;;;;16.08;9.65;;;;;;;19.14;37.12;102064.16;5012787;28;20407;-84
2022/04/30 06:57:37;;;;;;;10.88;7.90;;;;;;;20.95;34.51;102061.00;5010598;28;20058;-84
2022/04/30 07:01:24;;;;;;;10.20;8.43;;;;;;;20.94;34.26;102060.19;5013955;28;20037;-84
2022/04/30 07:02:49;;;;;;;11.73;8.07;;;;;;;21.31;33.49;102072.19;5013965;28;20046;-84
2022/04/30 07:05:14;;;;;;;10.55;8.30;;;;;;;21.33;33.64;102067.56;5014176;28;20034;-84
2022/04/30 07:07:39;;;;;;;10.43;7.82;;;;;;;21.57;33.31;102072.59;5013507;28;20033;-84
2022/04/30 07:10:05;;;;;;;11.73;7.68;;;;;;;21.83;33.00;102072.09;5013411;28;20048;-84
2022/04/30 07:12:30;;;;;;;9.02;7.80;;;;;;;22.05;32.23;102066.50;5013104;28;20053;-84
2022/04/30 07:14:55;;;;;;;12.95;7.90;;;;;;;22.49;31.05;102068.78;5013649;28;20073;-84
2022/04/30 07:17:22;;;;;;;8.70;7.57;;;;;;;22.86;30.92;102068.88;5013866;28;20045;-85
2022/04/30 07:19:47;;;;;;;8.60;6.75;;;;;;;23.35;30.85;102071.44;5013405;28;20025;-83
2022/04/30 07:22:13;;;;;;;7.07;5.93;;;;;;;23.51;30.05;102076.16;5011847;28;20030;-85
2022/04/30 07:24:38;;;;;;;7.68;5.95;;;;;;;23.68;29.47;102077.19;5010756;28;20014;-84
2022/04/30 07:27:05;;;;;;;10.18;6.55;;;;;;;23.82;29.12;102074.03;5016827;28;20038;-84
2022/04/30 07:29:31;;;;;;;6.20;5.35;;;;;;;23.96;29.12;102078.03;5019213;28;20029;-83
2022/04/30 07:31:57;;;;;;;7.13;6.13;;;;;;;23.99;28.88;102068.84;5012436;28;20446;-84
2022/04/30 07:34:23;;;;;;;7.10;5.15;;;;;;;24.44;28.50;102079.50;5012720;28;20017;-83
2022/04/30 07:36:48;;;;;;;7.93;4.95;;;;;;;24.94;27.36;102081.59;5015151;28;20026;-84
2022/04/30 07:39:15;;;;;;;7.93;4.57;;;;;;;25.42;27.34;102089.28;5012909;28;20105;-84
2022/04/30 07:41:40;;;;;;;7.53;5.47;;;;;;;26.05;26.16;102079.91;5014071;28;20036;-84
2022/04/30 07:44:05;;;;;;;8.10;5.82;;;;;;;25.97;26.67;102082.56;5011646;28;20451;-84
2022/04/30 07:46:31;;;;;;;6.28;4.50;;;;;;;25.92;26.43;102080.38;5012191;28;20026;-84
2022/04/30 07:48:56;;;;;;;13.07;5.78;;;;;;;26.62;26.29;102079.09;5013081;28;20113;-84
2022/04/30 07:51:38;;;;;;;8.73;6.15;;;;;;;26.72;25.78;102079.78;5012390;28;20029;-84
2022/04/30 07:54:04;;;;;;;8.05;5.03;;;;;;;27.34;24.97;102071.06;5011463;28;20045;-85
2022/04/30 07:56:29;;;;;;;7.43;4.65;;;;;;;27.54;24.78;102066.06;5011009;28;20028;-85
2022/04/30 07:58:55;;;;;;;6.38;4.53;;;;;;;27.47;25.23;102081.31;5012015;28;20026;-85
2022/04/30 08:01:21;;;;;;;7.05;4.75;;;;;;;28.09;24.64;102075.88;5011898;28;20033;-82
2022/04/30 08:03:46;;;;;;;8.07;5.85;;;;;;;27.76;24.29;102077.09;5012743;28;20030;-83
2022/04/30 08:06:11;;;;;;;5.57;5.05;;;;;;;27.36;24.79;102081.69;5011138;28;20072;-82
2022/04/30 08:08:37;;;;;;;6.88;5.07;;;;;;;27.32;24.45;102074.94;5022729;28;20091;-83
2022/04/30 08:11:04;;;;;;;5.05;4.30;;;;;;;27.12;25.24;102072.63;5013429;28;20025;-83
2022/04/30 08:13:29;;;;;;;6.65;5.38;;;;;;;27.50;24.71;102070.97;5012134;28;20030;-83
2022/04/30 08:15:55;;;;;;;5.00;4.50;;;;;;;27.42;24.70;102064.78;5011898;28;20030;-83
2022/04/30 08:18:20;;;;;;;7.78;5.28;;;;;;;27.91;24.94;102072.66;5011834;28;20117;-82
2022/04/30 08:20:46;;;;;;;6.63;4.50;;;;;;;28.45;24.22;102069.84;5011336;28;20257;-84
2022/04/30 08:23:12;;;;;;;5.47;3.58;;;;;;;28.31;23.52;102069.84;5012043;28;20311;-84
2022/04/30 08:25:38;;;;;;;5.63;4.28;;;;;;;28.42;23.66;102070.25;5011725;28;20607;-84
2022/04/30 08:28:04;;;;;;;5.75;4.60;;;;;;;27.85;24.33;102082.25;5011430;28;20025;-84
2022/04/30 08:30:31;;;;;;;5.80;4.45;;;;;;;28.33;24.15;102075.91;5012449;28;20028;-85
2022/04/30 08:32:57;;;;;;;5.68;3.03;;;;;;;28.80;22.69;102074.81;5012460;28;20476;-84
2022/04/30 08:35:23;;;;;;;4.00;2.72;;;;;;;28.84;23.44;102063.44;5012238;28;20028;-84
2022/04/30 08:37:48;;;;;;;4.88;2.50;;;;;;;28.75;22.78;102067.25;5011947;28;20114;-85
2022/04/30 08:40:14;;;;;;;4.20;2.53;;;;;;;29.38;22.31;102058.78;5010869;28;20032;-84
2022/04/30 08:42:41;;;;;;;6.00;3.55;;;;;;;29.72;22.03;102060.06;5011615;28;20040;-84
2022/04/30 08:45:08;;;;;;;3.00;2.42;;;;;;;29.92;21.31;102050.28;5011560;28;20080;-85
2022/04/30 08:47:42;;;;;;;7.47;3.15;;;;;;;29.78;22.35;102056.56;5011761;28;20121;-84
2022/04/30 08:50:13;;;;;;;5.63;2.60;;;;;;;30.31;21.89;102054.41;5009352;28;20029;-85
2022/04/30 08:52:38;;;;;;;4.37;2.87;;;;;;;30.14;21.82;102051.13;5006376;28;20029;-85
2022/04/30 08:55:05;;;;;;;4.70;2.78;;;;;;;30.27;21.81;102052.28;5012077;28;20037;-85
2022/04/30 08:57:31;;;;;;;6.38;2.92;;;;;;;29.87;21.85;102058.16;5011557;28;20096;-85
2022/04/30 08:59:58;;;;;;;5.13;3.13;;;;;;;30.04;21.94;102048.75;5010708;28;20030;-84
2022/04/30 09:02:23;;;;;;;6.45;3.42;;;;;;;30.10;21.92;102051.72;5009974;28;20063;-84
2022/04/30 09:04:49;;;;;;;6.80;3.15;;;;;;;30.91;20.80;102048.63;5011047;28;20034;-84
2022/04/30 09:07:20;;;;;;;5.10;2.65;;;;;;;30.68;21.35;102049.69;5011849;28;20030;-84
2022/04/30 09:09:57;;;;;;;4.53;3.30;;;;;;;31.02;21.38;102045.34;5011450;28;20029;-84
2022/04/30 09:12:23;;;;;;;6.93;2.80;;;;;;;31.67;21.20;102050.44;5016150;28;20099;-84
2022/04/30 09:14:49;;;;;;;5.35;2.45;;;;;;;31.85;20.48;102044.41;5006658;28;20029;-84
2022/04/30 09:17:15;;;;;;;3.88;2.38;;;;;;;31.42;20.93;102046.38;5011574;28;20022;-84
2022/04/30 09:19:51;;;;;;;4.28;2.58;;;;;;;32.00;20.67;102045.94;5009721;28;20028;-85
2022/04/30 09:22:28;;;;;;;5.40;2.55;;;;;;;31.75;20.08;102039.38;5011975;28;20515;-84
2022/04/30 09:24:54;;;;;;;4.80;2.90;;;;;;;31.65;20.77;102039.78;5013869;28;20395;-85
2022/04/30 09:27:20;;;;;;;4.07;2.40;;;;;;;31.75;20.45;102034.78;5010438;28;20025;-84
2022/04/30 09:29:45;;;;;;;4.97;2.30;;;;;;;32.05;20.72;102030.88;5015679;28;20117;-85
2022/04/30 09:32:18;;;;;;;3.80;2.47;;;;;;;32.13;20.75;102023.38;5012183;28;20045;-85
2022/04/30 09:37:42;;;;;;;8.10;3.65;;;;;;;32.93;19.81;102014.28;5009981;28;20096;-85
2022/04/30 09:40:13;;;;;;;7.90;2.85;;;;;;;31.93;20.20;102014.34;5007752;28;20108;-85
2022/04/30 09:42:39;;;;;;;3.63;2.17;;;;;;;33.25;19.23;102017.13;5013245;28;20407;-85
2022/04/30 09:45:06;;;;;;;5.25;2.88;;;;;;;32.66;19.70;102008.91;5011798;28;20095;-85
2022/04/30 09:47:33;;;;;;;4.05;2.40;;;;;;;32.83;19.15;102005.75;5016415;28;20104;-84
2022/04/30 09:55:30;;;;;;;2.45;1.98;;;;;;;32.33;20.12;101996.19;5013468;28;20037;-85
2022/04/30 09:57:58;;;;;;;4.00;2.17;;;;;;;32.45;21.03;101990.94;5010250;28;20030;-84
2022/04/30 10:00:25;;;;;;;3.17;2.25;;;;;;;33.18;20.21;101985.34;5053786;28;20025;-84
2022/04/30 10:02:57;;;;;;;3.75;2.60;;;;;;;33.32;19.58;101979.81;5014219;28;20034;-84
2022/04/30 10:05:23;;;;;;;5.90;2.67;;;;;;;32.89;19.10;101983.13;5017764;28;20030;-84
2022/04/30 10:07:49;;;;;;;4.88;2.83;;;;;;;32.86;19.08;101981.69;5016303;28;20024;-85
2022/04/30 10:10:25;;;;;;;5.03;3.05;;;;;;;33.52;18.77;101985.16;5018769;28;20021;-84
2022/04/30 10:12:59;;;;;;;7.25;2.35;;;;;;;33.52;18.38;101975.09;5012752;28;20101;-83
2022/04/30 10:15:37;;;;;;;4.28;2.63;;;;;;;33.06;19.61;101970.72;5009801;28;20536;-84
2022/04/30 10:18:06;;;;;;;6.65;2.40;;;;;;;32.37;20.36;101969.44;5015799;28;20093;-84
2022/04/30 10:20:34;;;;;;;4.20;2.40;;;;;;;32.88;19.80;101967.84;5015911;28;20025;-85
2022/04/30 10:23:00;;;;;;;3.65;2.20;;;;;;;33.29;19.01;101962.03;5015061;28;20561;-83
2022/04/30 10:25:34;;;;;;;4.20;2.50;;;;;;;33.51;18.73;101962.53;5015696;28;20308;-85
2022/04/30 10:28:22;;;;;;;2.95;2.15;;;;;;;33.30;18.33;101960.16;5018614;28;20014;-85
2022/04/30 10:31:05;;;;;;;3.95;2.40;;;;;;;33.06;19.32;101957.09;5019471;28;20467;-84
2022/04/30 10:33:31;;;;;;;3.03;2.08;;;;;;;32.63;20.16;101948.69;5012224;28;20034;-84
2022/04/30 10:36:09;;;;;;;3.30;2.13;;;;;;;32.89;19.49;101947.75;5013663;28;20160;-83
2022/04/30 10:38:35;;;;;;;3.63;2.72;;;;;;;31.23;20.33;101961.13;5014787;28;20022;-84
2022/04/30 10:41:02;;;;;;;5.20;2.65;;;;;;;32.69;20.44;101954.09;5016901;28;20037;-84
2022/04/30 10:43:36;;;;;;;5.25;2.40;;;;;;;33.84;19.91;101955.19;5012630;28;20492;-84
2022/04/30 10:46:16;;;;;;;2.88;2.00;;;;;;;33.66;18.94;101953.25;5014566;28;20476;-84
2022/04/30 10:48:42;;;;;;;3.97;2.38;;;;;;;33.82;18.14;101951.84;5009746;28;20030;-84
2022/04/30 10:51:09;;;;;;;9.18;2.38;;;;;;;33.63;18.51;101935.47;5011056;28;20042;-83
2022/04/30 10:53:39;;;;;;;5.90;2.72;;;;;;;33.10;18.83;101942.03;5012421;28;20030;-84
2022/04/30 10:56:06;;;;;;;3.78;2.13;;;;;;;33.02;18.96;101939.53;5014991;28;20052;-84
2022/04/30 10:58:31;;;;;;;4.53;2.25;;;;;;;32.65;19.84;101936.56;5015448;28;20108;-84
2022/04/30 11:00:57;;;;;;;5.63;2.20;;;;;;;32.60;20.56;101928.19;5017299;28;20425;-84
2022/04/30 11:03:30;;;;;;;4.43;2.55;;;;;;;32.77;19.60;101928.56;5016510;28;20040;-84
2022/04/30 11:05:56;;;;;;;4.13;2.17;;;;;;;32.83;18.91;101927.69;5013811;28;20045;-84
2022/04/30 11:08:21;;;;;;;5.20;2.42;;;;;;;32.65;19.68;101922.13;5014030;28;20026;-84
2022/04/30 11:10:51;;;;;;;4.78;2.55;;;;;;;32.03;20.28;101917.00;5015673;28;20029;-84
2022/04/30 11:13:17;;;;;;;4.95;3.05;;;;;;;32.64;19.16;101913.13;5013891;28;20506;-84
2022/04/30 11:15:42;;;;;;;8.85;2.80;;;;;;;32.79;20.63;101910.97;5016590;28;20026;-84
2022/04/30 11:18:08;;;;;;;7.00;2.58;;;;;;;32.40;20.12;101918.16;5028837;28;20029;-84
2022/04/30 11:20:34;;;;;;;2.85;2.08;;;;;;;32.49;19.94;101921.50;5012889;28;20041;-84
2022/04/30 11:23:03;;;;;;;4.63;2.55;;;;;;;32.32;19.48;101918.41;5013428;28;20030;-84
2022/04/30 11:25:39;;;;;;;3.58;2.20;;;;;;;32.33;19.74;101911.13;5015001;28;20029;-84
2022/04/30 11:28:09;;;;;;;3.88;2.40;;;;;;;33.06;19.07;101907.28;5018080;28;20435;-84
2022/04/30 11:30:36;;;;;;;3.92;2.15;;;;;;;33.17;20.16;101896.56;5015334;28;20025;-84
2022/04/30 11:33:02;;;;;;;3.05;1.92;;;;;;;33.26;19.83;101897.16;5013696;28;20033;-84
2022/04/30 11:35:27;;;;;;;4.95;2.63;;;;;;;33.66;19.07;101893.31;5019423;28;20022;-84
2022/04/30 11:37:53;;;;;;;3.42;2.53;;;;;;;33.36;19.82;101883.88;5015135;28;20368;-84
2022/04/30 11:40:22;;;;;;;4.60;2.38;;;;;;;33.03;20.01;101884.06;5027335;28;20030;-84
2022/04/30 11:42:56;;;;;;;3.45;1.90;;;;;;;34.01;19.17;101873.69;5013429;28;20470;-84
2022/04/30 11:45:26;;;;;;;3.17;1.60;;;;;;;34.20;19.24;101872.69;5012575;28;20064;-83
2022/04/30 11:47:52;;;;;;;4.07;2.00;;;;;;;34.41;19.66;101863.22;5012605;28;20065;-84
2022/04/30 11:50:18;;;;;;;3.13;1.73;;;;;;;34.28;18.62;101872.41;5013289;28;20061;-84
2022/04/30 11:52:44;;;;;;;4.85;2.58;;;;;;;34.11;18.86;101865.88;5023325;28;20476;-84
2022/04/30 11:55:10;;;;;;;2.88;2.20;;;;;;;33.57;19.28;101868.22;5013549;28;20476;-84